createdAt,value
2019-01-16T00:01:20.276Z,26.83
2019-01-16T00:03:59.244Z,24.63
2019-01-16T00:06:32.275Z,26.47
2019-01-16T00:09:08.573Z,24.70
2019-01-16T00:11:38.622Z,29.73
2019-01-16T00:14:14.698Z,27.30
2019-01-16T00:16:44.801Z,34.53
2019-01-16T00:19:30.968Z,27.60
2019-01-16T00:22:16.279Z,26.47
2019-01-16T00:25:01.670Z,26.93
2019-01-16T00:27:43.555Z,28.80
2019-01-16T00:30:15.790Z,26.83
2019-01-16T00:32:51.646Z,28.63
2019-01-16T00:35:21.744Z,27.10
2019-01-16T00:38:04.074Z,28.07
2019-01-16T00:40:34.151Z,25.60
2019-01-16T00:43:06.915Z,30.87
2019-01-16T00:45:42.990Z,28.77
2019-01-16T00:48:15.819Z,28.77
2019-01-16T00:50:48.408Z,27.83
2019-01-16T00:53:30.441Z,30.07
2019-01-16T00:56:03.193Z,37.03
2019-01-16T00:58:33.308Z,32.53
2019-01-16T01:01:03.507Z,31.77
2019-01-16T01:03:33.541Z,33.93
2019-01-16T01:06:21.954Z,34.73
2019-01-16T01:08:52.100Z,36.27
2019-01-16T01:11:24.974Z,39.20
2019-01-16T01:13:55.115Z,39.47
2019-01-16T01:16:27.657Z,43.83
2019-01-16T01:18:57.770Z,41.53
2019-01-16T01:21:27.890Z,39.40
2019-01-16T01:23:57.962Z,36.77
2019-01-16T01:26:42.975Z,37.73
2019-01-16T01:29:19.301Z,36.77
2019-01-16T01:32:05.688Z,33.50
2019-01-16T01:34:45.721Z,36.33
2019-01-16T01:37:24.791Z,36.57
2019-01-16T01:40:00.692Z,31.67
2019-01-16T01:42:33.925Z,32.97
2019-01-16T01:45:12.918Z,37.50
2019-01-16T01:47:44.712Z,31.80
2019-01-16T01:50:17.863Z,33.80
2019-01-16T01:52:59.894Z,34.53
2019-01-16T01:55:29.982Z,31.90
2019-01-16T01:58:08.517Z,34.67
2019-01-16T02:00:38.612Z,33.80
2019-01-16T02:03:14.499Z,33.67
2019-01-16T02:06:02.332Z,32.30
2019-01-16T02:08:35.309Z,37.10
2019-01-16T02:11:14.577Z,33.67
2019-01-16T02:13:44.650Z,34.87
2019-01-16T02:16:14.749Z,34.10
2019-01-16T02:18:54.608Z,32.77
2019-01-16T02:21:27.627Z,33.97
2019-01-16T02:24:00.145Z,35.37
2019-01-16T02:26:41.886Z,32.70
2019-01-16T02:29:26.980Z,31.57
2019-01-16T02:32:13.155Z,32.23
2019-01-16T02:34:59.558Z,32.57
2019-01-16T02:37:35.715Z,33.60
2019-01-16T02:40:19.728Z,31.77
2019-01-16T02:42:49.802Z,33.67
2019-01-16T02:45:22.579Z,35.00
2019-01-16T02:47:52.652Z,34.30
2019-01-16T02:50:28.692Z,31.37
2019-01-16T02:53:01.436Z,29.30
2019-01-16T02:55:37.305Z,28.47
2019-01-16T02:58:13.474Z,26.67
2019-01-16T03:00:43.656Z,24.47
2019-01-16T03:03:13.722Z,28.27
2019-01-16T03:05:52.782Z,28.50
2019-01-16T03:08:22.849Z,25.70
2019-01-16T03:11:01.677Z,24.80
2019-01-16T03:13:31.756Z,23.50
2019-01-16T03:16:07.398Z,25.20
2019-01-16T03:18:37.554Z,24.63
2019-01-16T03:21:07.622Z,20.87
2019-01-16T03:23:37.710Z,22.17
2019-01-16T03:26:08.351Z,19.30
2019-01-16T03:28:43.872Z,23.43
2019-01-16T03:31:13.943Z,20.90
2019-01-16T03:33:44.547Z,20.50
2019-01-16T03:36:20.312Z,21.37
2019-01-16T03:39:08.727Z,18.80
2019-01-16T03:41:50.497Z,19.67
2019-01-16T03:44:36.658Z,20.63
2019-01-16T03:47:15.940Z,23.63
2019-01-16T03:49:57.935Z,18.27
2019-01-16T03:52:33.787Z,18.67
2019-01-16T03:55:22.672Z,19.93
2019-01-16T03:58:04.394Z,19.90
2019-01-16T04:00:43.037Z,19.57
2019-01-16T04:03:28.083Z,20.13
2019-01-16T04:06:04.245Z,19.03
2019-01-16T04:08:34.331Z,18.97
2019-01-16T04:11:20.179Z,19.50
2019-01-16T04:14:05.510Z,22.90
2019-01-16T04:16:38.207Z,27.30
2019-01-16T04:19:21.902Z,19.17
2019-01-16T04:22:07.826Z,21.80
2019-01-16T04:24:53.705Z,18.37
2019-01-16T04:27:23.812Z,24.00
2019-01-16T04:30:03.071Z,20.43
2019-01-16T04:32:33.117Z,18.10
2019-01-16T04:35:09.228Z,19.03
2019-01-16T04:37:57.016Z,19.97
2019-01-16T04:40:41.834Z,17.40
2019-01-16T04:43:14.728Z,19.10
2019-01-16T04:46:02.903Z,18.20
2019-01-16T04:48:45.180Z,17.07
2019-01-16T04:51:26.934Z,16.53
2019-01-16T04:54:02.977Z,18.87
2019-01-16T04:56:35.506Z,18.13
2019-01-16T04:59:15.332Z,15.90
2019-01-16T05:02:01.781Z,17.90
2019-01-16T05:04:41.009Z,18.10
2019-01-16T05:07:14.239Z,18.23
2019-01-16T05:10:00.637Z,18.80
2019-01-16T05:12:46.895Z,16.53
2019-01-16T05:15:17.035Z,16.10
2019-01-16T05:17:56.046Z,18.00
2019-01-16T05:20:32.066Z,15.80
2019-01-16T05:23:07.959Z,13.97
2019-01-16T05:25:44.223Z,15.07
2019-01-16T05:28:16.971Z,14.53
2019-01-16T05:31:02.378Z,15.90
2019-01-16T05:33:40.950Z,13.27
2019-01-16T05:36:11.045Z,14.17
2019-01-16T05:38:47.068Z,13.33
2019-01-16T05:41:33.745Z,12.93
2019-01-16T05:44:06.270Z,11.73
2019-01-16T05:46:42.045Z,11.67
2019-01-16T05:49:12.128Z,12.27
2019-01-16T05:51:57.414Z,10.80
2019-01-16T05:54:30.445Z,10.33
2019-01-16T05:57:03.231Z,12.33
2019-01-16T05:59:47.913Z,10.67
2019-01-16T06:02:33.958Z,11.07
2019-01-16T06:05:04.069Z,10.40
2019-01-16T06:07:50.428Z,9.93
2019-01-16T06:10:32.381Z,9.90
2019-01-16T06:13:02.461Z,11.07
2019-01-16T06:15:32.507Z,11.57
2019-01-16T06:18:11.434Z,9.37
2019-01-16T06:20:54.100Z,10.63
2019-01-16T06:23:24.177Z,10.07
2019-01-16T06:25:54.252Z,10.53
2019-01-16T06:28:36.254Z,9.83
2019-01-16T06:31:24.244Z,11.03
2019-01-16T06:34:06.349Z,10.00
2019-01-16T06:36:36.401Z,10.70
2019-01-16T06:39:12.502Z,13.93
2019-01-16T06:42:00.816Z,12.80
2019-01-16T06:44:33.677Z,12.33
2019-01-16T06:47:03.749Z,13.00
2019-01-16T06:49:39.631Z,12.53
2019-01-16T06:52:12.469Z,14.03
2019-01-16T06:54:42.668Z,13.57
2019-01-16T06:57:29.096Z,14.37
2019-01-16T07:00:02.383Z,13.40
2019-01-16T07:02:32.468Z,12.40
2019-01-16T07:05:17.552Z,12.67
2019-01-16T07:07:50.523Z,14.53
2019-01-16T07:10:29.901Z,13.73
2019-01-16T07:12:59.946Z,13.73
2019-01-16T07:15:46.187Z,13.70
2019-01-16T07:18:31.290Z,13.90
2019-01-16T07:21:03.899Z,12.97
2019-01-16T07:23:48.945Z,13.37
2019-01-16T07:26:24.702Z,12.83
2019-01-16T07:29:00.447Z,13.70
2019-01-16T07:31:42.305Z,12.20
2019-01-16T07:34:15.184Z,12.30
2019-01-16T07:36:45.258Z,11.73
2019-01-16T07:39:24.288Z,11.70
2019-01-16T07:42:10.641Z,12.93
2019-01-16T07:44:44.122Z,12.80
2019-01-16T07:47:16.890Z,11.73
2019-01-16T07:49:46.964Z,12.83
2019-01-16T07:52:20.204Z,13.00
2019-01-16T07:54:50.301Z,11.80
2019-01-16T07:57:20.384Z,11.63
2019-01-16T07:59:50.468Z,14.37
2019-01-16T08:02:32.452Z,12.50
2019-01-16T08:05:08.737Z,12.37
2019-01-16T08:07:41.770Z,11.57
2019-01-16T08:10:30.217Z,12.13
2019-01-16T08:13:00.305Z,11.87
2019-01-16T08:15:33.079Z,10.23
2019-01-16T08:18:11.786Z,14.10
2019-01-16T08:20:41.863Z,11.47
2019-01-16T08:23:21.172Z,11.43
2019-01-16T08:25:57.753Z,12.17
2019-01-16T08:28:39.716Z,11.07
2019-01-16T08:31:10.036Z,11.60
2019-01-16T08:33:58.612Z,10.03
2019-01-16T08:36:28.696Z,9.97
2019-01-16T08:39:10.991Z,9.90
2019-01-16T08:41:46.889Z,9.73
2019-01-16T08:44:33.035Z,9.30
2019-01-16T08:47:11.569Z,9.33
2019-01-16T08:49:41.629Z,10.37
2019-01-16T08:52:29.840Z,11.47
2019-01-16T08:55:15.940Z,8.27
2019-01-16T08:58:02.423Z,8.30
2019-01-16T09:00:41.518Z,8.97
2019-01-16T09:03:17.369Z,8.73
2019-01-16T09:05:49.904Z,7.87
2019-01-16T09:08:22.904Z,7.23
2019-01-16T09:10:58.653Z,8.07
2019-01-16T09:13:34.582Z,9.00
2019-01-16T09:16:10.505Z,8.43
2019-01-16T09:18:40.674Z,7.43
2019-01-16T09:21:10.783Z,7.27
2019-01-16T09:23:43.624Z,7.20
2019-01-16T09:26:23.556Z,7.20
2019-01-16T09:28:56.299Z,8.77
2019-01-16T09:31:44.152Z,6.97
2019-01-16T09:34:14.182Z,7.03
2019-01-16T09:36:56.348Z,6.07
2019-01-16T09:39:41.482Z,5.93
2019-01-16T09:42:27.787Z,6.10
2019-01-16T09:45:13.908Z,6.87
2019-01-16T09:47:46.776Z,7.10
2019-01-16T09:50:16.916Z,5.63
2019-01-16T09:52:46.990Z,5.27
2019-01-16T09:55:17.060Z,5.57
2019-01-16T09:57:58.857Z,6.70
2019-01-16T10:00:44.047Z,7.23
2019-01-16T10:03:30.346Z,5.50
2019-01-16T10:06:16.345Z,5.53
2019-01-16T10:08:49.175Z,5.30
2019-01-16T10:11:22.337Z,6.97
2019-01-16T10:13:52.417Z,5.80
2019-01-16T10:16:25.259Z,6.47
2019-01-16T10:18:55.304Z,7.10
2019-01-16T10:21:37.076Z,7.37
2019-01-16T10:24:15.891Z,6.03
2019-01-16T10:26:51.986Z,6.53
2019-01-16T10:29:28.246Z,6.07
2019-01-16T10:32:09.390Z,7.43
2019-01-16T10:35:00.606Z,6.83
2019-01-16T10:37:32.474Z,6.27
2019-01-16T10:40:17.712Z,6.70
2019-01-16T10:42:53.739Z,5.97
2019-01-16T10:45:35.454Z,8.30
2019-01-16T10:48:05.517Z,6.27
2019-01-16T10:50:38.293Z,6.70
2019-01-16T10:53:14.189Z,7.60
2019-01-16T10:55:55.860Z,6.70
2019-01-16T10:58:38.223Z,5.67
2019-01-16T11:01:17.657Z,7.37
2019-01-16T11:03:47.816Z,7.27
2019-01-16T11:06:17.875Z,6.53
2019-01-16T11:08:50.933Z,7.70
2019-01-16T11:11:26.725Z,9.27
2019-01-16T11:14:02.773Z,5.77
2019-01-16T11:16:32.846Z,7.33
2019-01-16T11:19:14.780Z,6.93
2019-01-16T11:21:47.403Z,5.77
2019-01-16T11:24:33.927Z,5.37
2019-01-16T11:27:04.005Z,6.47
2019-01-16T11:29:42.828Z,5.83
2019-01-16T11:32:29.322Z,5.43
2019-01-16T11:34:59.394Z,6.97
2019-01-16T11:37:32.197Z,7.13
2019-01-16T11:40:08.201Z,8.27
2019-01-16T11:42:46.838Z,7.83
2019-01-16T11:45:19.438Z,9.40
2019-01-16T11:48:05.908Z,7.90
2019-01-16T11:50:41.678Z,8.53
2019-01-16T11:53:17.553Z,6.03
2019-01-16T11:55:50.562Z,6.87
2019-01-16T11:58:37.246Z,7.70
2019-01-16T12:01:07.543Z,6.37
2019-01-16T12:03:37.675Z,6.00
2019-01-16T12:06:10.610Z,5.63
2019-01-16T12:08:40.682Z,5.07
2019-01-16T12:11:27.229Z,5.90
2019-01-16T12:14:03.990Z,7.50
2019-01-16T12:16:37.216Z,7.10
2019-01-16T12:19:07.585Z,5.47
2019-01-16T12:21:55.869Z,4.53
2019-01-16T12:24:29.156Z,6.07
2019-01-16T12:27:15.678Z,5.23
2019-01-16T12:29:48.173Z,5.33
2019-01-16T12:32:27.200Z,4.50
2019-01-16T12:35:13.484Z,4.67
2019-01-16T12:37:43.592Z,5.93
2019-01-16T12:40:23.541Z,6.77
2019-01-16T12:42:53.618Z,7.03
2019-01-16T12:45:30.148Z,6.73
2019-01-16T12:48:03.312Z,7.17
2019-01-16T12:50:39.174Z,5.30
2019-01-16T12:53:12.020Z,4.43
2019-01-16T12:55:42.103Z,4.07
2019-01-16T12:58:14.844Z,3.73
2019-01-16T13:00:47.652Z,3.63
2019-01-16T13:03:17.717Z,4.57
2019-01-16T13:05:50.987Z,5.87
2019-01-16T13:08:38.745Z,5.37
2019-01-16T13:11:18.265Z,6.90
2019-01-16T13:14:00.343Z,4.07
2019-01-16T13:16:36.227Z,6.13
2019-01-16T13:19:22.847Z,5.37
2019-01-16T13:21:53.151Z,3.67
2019-01-16T13:24:39.494Z,4.20
2019-01-16T13:27:09.574Z,7.47
2019-01-16T13:29:39.654Z,4.77
2019-01-16T13:32:26.201Z,5.73
2019-01-16T13:34:56.308Z,5.50
2019-01-16T13:37:42.787Z,5.67
2019-01-16T13:40:15.589Z,6.97
2019-01-16T13:42:45.647Z,7.27
2019-01-16T13:45:21.525Z,6.03
2019-01-16T13:47:54.502Z,10.80
2019-01-16T13:50:33.313Z,8.20
2019-01-16T13:53:12.444Z,9.63
2019-01-16T13:55:44.921Z,6.80
2019-01-16T13:58:26.932Z,8.80
2019-01-16T14:00:57.242Z,8.67
2019-01-16T14:03:27.312Z,6.67
2019-01-16T14:05:57.446Z,8.10
2019-01-16T14:08:30.567Z,11.70
2019-01-16T14:11:03.729Z,10.23
2019-01-16T14:13:46.185Z,9.37
2019-01-16T14:16:19.243Z,12.47
2019-01-16T14:18:55.364Z,11.77
2019-01-16T14:21:25.560Z,10.60
2019-01-16T14:24:04.473Z,10.00
2019-01-16T14:26:43.736Z,11.90
2019-01-16T14:29:19.580Z,11.13
2019-01-16T14:31:58.892Z,14.83
2019-01-16T14:34:41.182Z,10.30
2019-01-16T14:37:27.480Z,8.00
2019-01-16T14:39:57.623Z,7.67
2019-01-16T14:42:27.839Z,8.37
2019-01-16T14:44:57.907Z,10.10
2019-01-16T14:47:30.832Z,11.43
2019-01-16T14:50:19.285Z,11.93
2019-01-16T14:52:55.586Z,10.90
2019-01-16T14:55:32.407Z,8.67
2019-01-16T14:58:08.630Z,13.23
2019-01-16T15:00:38.768Z,10.53
2019-01-16T15:03:09.651Z,11.40
2019-01-16T15:05:53.179Z,11.70
2019-01-16T15:08:29.627Z,10.40
2019-01-16T15:10:59.714Z,11.30
2019-01-16T15:13:44.769Z,14.73
2019-01-16T15:16:14.851Z,10.63
2019-01-16T15:18:44.926Z,11.00
2019-01-16T15:21:23.839Z,13.67
2019-01-16T15:24:03.271Z,15.50
2019-01-16T15:26:51.189Z,14.30
2019-01-16T15:29:33.030Z,20.10
2019-01-16T15:32:08.944Z,17.63
2019-01-16T15:34:44.547Z,16.70
2019-01-16T15:37:26.921Z,13.67
2019-01-16T15:40:08.801Z,12.67
2019-01-16T15:42:41.448Z,14.93
2019-01-16T15:45:11.660Z,17.37
2019-01-16T15:47:41.773Z,15.47
2019-01-16T15:50:21.938Z,19.50
2019-01-16T15:52:57.271Z,21.93
2019-01-16T15:55:30.304Z,16.13
2019-01-16T15:58:00.399Z,17.17
2019-01-16T16:00:30.456Z,23.70
2019-01-16T16:03:03.476Z,19.23
2019-01-16T16:05:49.610Z,18.30
2019-01-16T16:08:29.162Z,20.77
2019-01-16T16:11:08.114Z,20.13
2019-01-16T16:13:43.894Z,19.23
2019-01-16T16:16:13.960Z,25.20
2019-01-16T16:19:00.250Z,18.87
2019-01-16T16:21:30.326Z,13.57
2019-01-16T16:24:00.394Z,15.50
2019-01-16T16:26:30.467Z,12.50
2019-01-16T16:29:00.525Z,15.47
2019-01-16T16:31:30.617Z,13.13
2019-01-16T16:34:12.858Z,12.43
2019-01-16T16:36:43.056Z,14.27
2019-01-16T16:39:29.341Z,12.80
2019-01-16T16:42:01.802Z,13.63
2019-01-16T16:44:48.437Z,17.10
2019-01-16T16:47:33.693Z,14.93
2019-01-16T16:50:03.769Z,15.10
2019-01-16T16:52:42.749Z,17.13
2019-01-16T16:55:19.104Z,17.87
2019-01-16T16:57:50.189Z,21.50
2019-01-16T17:00:38.261Z,12.87
2019-01-16T17:03:20.327Z,13.27
2019-01-16T17:05:50.451Z,15.53
2019-01-16T17:08:20.500Z,14.63
2019-01-16T17:10:59.545Z,16.87
2019-01-16T17:13:38.689Z,12.27
2019-01-16T17:16:20.654Z,12.90
2019-01-16T17:18:56.570Z,13.60
2019-01-16T17:21:26.611Z,14.93
2019-01-16T17:23:56.692Z,14.10
2019-01-16T17:26:32.630Z,9.50
2019-01-16T17:29:11.677Z,17.83
2019-01-16T17:31:50.438Z,11.23
2019-01-16T17:34:23.509Z,14.13
2019-01-16T17:37:10.159Z,10.57
2019-01-16T17:39:40.296Z,12.07
2019-01-16T17:42:16.095Z,13.20
2019-01-16T17:45:04.225Z,12.00
2019-01-16T17:47:34.296Z,13.83
2019-01-16T17:50:21.030Z,11.90
2019-01-16T17:53:02.990Z,11.60
2019-01-16T17:55:49.195Z,15.20
2019-01-16T17:58:21.981Z,10.63
2019-01-16T18:00:52.039Z,15.60
2019-01-16T18:03:34.015Z,17.60
2019-01-16T18:06:06.714Z,13.53
2019-01-16T18:08:36.836Z,15.20
2019-01-16T18:11:21.660Z,16.70
2019-01-16T18:13:52.795Z,19.00
2019-01-16T18:16:34.886Z,17.97
2019-01-16T18:19:11.828Z,13.70
2019-01-16T18:21:44.714Z,16.90
2019-01-16T18:24:17.838Z,14.93
2019-01-16T18:27:04.312Z,14.30
2019-01-16T18:29:37.095Z,14.17
2019-01-16T18:32:16.740Z,13.07
2019-01-16T18:35:05.237Z,16.43
2019-01-16T18:37:37.913Z,20.10
2019-01-16T18:40:11.030Z,10.67
2019-01-16T18:42:57.127Z,13.57
2019-01-16T18:45:42.935Z,17.47
2019-01-16T18:48:13.382Z,17.33
2019-01-16T18:50:58.615Z,10.50
2019-01-16T18:53:38.124Z,17.37
2019-01-16T18:56:16.771Z,14.37
2019-01-16T18:58:46.857Z,16.07
2019-01-16T19:01:19.666Z,13.63
2019-01-16T19:04:07.535Z,18.47
2019-01-16T19:06:40.298Z,19.67
2019-01-16T19:09:26.910Z,17.83
2019-01-16T19:11:59.808Z,19.07
2019-01-16T19:14:45.688Z,11.90
2019-01-16T19:17:24.441Z,14.93
2019-01-16T19:19:54.555Z,11.80
2019-01-16T19:22:40.955Z,13.47
2019-01-16T19:25:23.119Z,8.87
2019-01-16T19:27:56.781Z,10.57
2019-01-16T19:30:29.698Z,12.33
2019-01-16T19:33:18.071Z,11.60
2019-01-16T19:35:48.112Z,10.93
2019-01-16T19:38:34.040Z,12.33
2019-01-16T19:41:16.317Z,14.20
2019-01-16T19:44:04.113Z,11.43
2019-01-16T19:46:34.189Z,11.40
2019-01-16T19:49:07.241Z,15.17
2019-01-16T19:51:40.390Z,11.53
2019-01-16T19:54:16.096Z,11.07
2019-01-16T19:56:46.214Z,15.93
2019-01-16T19:59:16.279Z,8.97
2019-01-16T20:02:04.388Z,12.33
2019-01-16T20:04:34.509Z,8.90
2019-01-16T20:07:04.621Z,16.67
2019-01-16T20:09:37.105Z,9.83
2019-01-16T20:12:16.709Z,15.80
2019-01-16T20:14:46.766Z,12.73
2019-01-16T20:17:35.035Z,14.13
2019-01-16T20:20:06.071Z,9.50
2019-01-16T20:22:36.114Z,12.70
2019-01-16T20:25:08.339Z,11.33
2019-01-16T20:27:47.696Z,16.57
2019-01-16T20:30:21.005Z,16.53
2019-01-16T20:32:51.363Z,12.27
2019-01-16T20:35:30.221Z,14.70
2019-01-16T20:38:03.683Z,12.70
2019-01-16T20:40:48.683Z,17.97
2019-01-16T20:43:34.220Z,14.80
2019-01-16T20:46:20.620Z,15.63
2019-01-16T20:48:53.797Z,17.70
2019-01-16T20:51:24.855Z,18.73
2019-01-16T20:54:13.511Z,16.83
2019-01-16T20:56:46.292Z,17.03
2019-01-16T20:59:32.705Z,18.10
2019-01-16T21:02:05.801Z,22.27
2019-01-16T21:04:44.973Z,16.50
2019-01-16T21:07:24.817Z,18.23
2019-01-16T21:09:57.804Z,16.70
2019-01-16T21:12:44.863Z,16.37
2019-01-16T21:15:15.303Z,15.47
2019-01-16T21:17:45.942Z,17.30
2019-01-16T21:20:19.638Z,22.80
2019-01-16T21:22:52.443Z,17.77
2019-01-16T21:25:28.665Z,20.47
2019-01-16T21:28:07.916Z,14.40
2019-01-16T21:30:41.048Z,16.60
2019-01-16T21:33:29.497Z,17.30
2019-01-16T21:36:08.735Z,14.30
2019-01-16T21:38:44.512Z,18.17
2019-01-16T21:41:20.765Z,18.47
2019-01-16T21:44:06.703Z,15.47
2019-01-16T21:46:43.250Z,21.20
2019-01-16T21:49:29.555Z,15.17
2019-01-16T21:52:11.661Z,14.40
2019-01-16T21:54:48.121Z,18.40
2019-01-16T21:57:24.256Z,17.80
2019-01-16T22:00:00.465Z,16.90
2019-01-16T22:02:33.874Z,29.77
2019-01-16T22:05:03.963Z,16.83
2019-01-16T22:07:34.137Z,20.47
2019-01-16T22:10:07.020Z,13.90
2019-01-16T22:12:52.990Z,15.53
2019-01-16T22:15:25.592Z,22.43
2019-01-16T22:18:01.706Z,15.63
2019-01-16T22:20:47.754Z,17.50
2019-01-16T22:23:24.858Z,15.80
2019-01-16T22:25:55.532Z,12.43
2019-01-16T22:28:38.137Z,19.80
2019-01-16T22:31:11.716Z,14.97
2019-01-16T22:33:47.728Z,15.53
2019-01-16T22:36:20.202Z,24.07
2019-01-16T22:39:06.459Z,16.07
2019-01-16T22:41:42.310Z,20.63
2019-01-16T22:44:23.932Z,23.87
2019-01-16T22:47:10.553Z,23.53
2019-01-16T22:49:43.616Z,16.33
2019-01-16T22:52:16.889Z,15.43
2019-01-16T22:54:46.954Z,15.63
2019-01-16T22:57:23.656Z,18.87
2019-01-16T23:00:03.357Z,16.47
2019-01-16T23:02:36.098Z,18.33
2019-01-16T23:05:10.234Z,17.47
2019-01-16T23:07:52.135Z,16.50
2019-01-16T23:10:25.037Z,22.30
2019-01-16T23:13:13.409Z,15.87
2019-01-16T23:15:43.493Z,13.13
2019-01-16T23:18:16.497Z,21.97
2019-01-16T23:20:55.710Z,14.00
2019-01-16T23:23:28.467Z,13.27
2019-01-16T23:26:01.403Z,13.97
2019-01-16T23:28:31.501Z,12.50
2019-01-16T23:31:17.805Z,17.50
2019-01-16T23:34:03.716Z,17.10
2019-01-16T23:36:33.783Z,18.97
2019-01-16T23:39:03.829Z,18.37
2019-01-16T23:41:42.665Z,15.67
2019-01-16T23:44:18.699Z,17.23
2019-01-16T23:46:57.507Z,18.20
2019-01-16T23:49:39.163Z,14.07
2019-01-16T23:52:15.096Z,18.07
2019-01-16T23:54:45.226Z,14.23
2019-01-16T23:57:17.844Z,18.03
